Airport View

Enter AWOS ICAO identifier for current METAR.

ex. KFNL

KNRB 101452Z 31005KT 10SM FEW030 SCT250 30/24 A3012 RMK AO2 SLP200 T03000244 53003

10 Aug 2020 15:05

Other Area AWOS: KCRG - KFHB - KJAX - KNIP

TAF KNRB 1015/1115 26005KT 9999 FEW030 SCT250 QNH3008INS FM101700 14009KT 9999 VCTS SCT035CB SCT100 BKN250 QNH3000INS FM110300 VRB05KT 9999 FEW040 SCT150 BKN250 QNH3000INS T32/1019Z T24/1111Z FN20021